createdAt,value
2017-04-11T00:00:21.382Z,53.14
2017-04-11T00:00:43.091Z,53.05
2017-04-11T00:01:04.792Z,52.95
2017-04-11T00:01:26.483Z,53.05
2017-04-11T00:01:48.261Z,53.66
2017-04-11T00:02:14.741Z,54.23
2017-04-11T00:02:36.452Z,54.34
2017-04-11T00:03:34.742Z,54.30
2017-04-11T00:04:05.989Z,54.65
2017-04-11T00:04:27.788Z,54.73
2017-04-11T00:04:54.263Z,54.97
2017-04-11T00:05:15.958Z,55.63
2017-04-11T00:05:37.746Z,55.51
2017-04-11T00:05:59.446Z,56.02
2017-04-11T00:06:21.152Z,55.58
2017-04-11T00:06:42.851Z,55.46
2017-04-11T00:07:04.655Z,55.21
2017-04-11T00:07:26.338Z,54.97
2017-04-11T00:07:57.600Z,54.73
2017-04-11T00:08:19.310Z,54.43
2017-04-11T00:08:41.099Z,54.14
2017-04-11T00:09:07.594Z,53.59
2017-04-11T00:09:29.296Z,53.40
2017-04-11T00:10:00.555Z,53.45
2017-04-11T00:10:22.259Z,53.15
2017-04-11T00:10:53.505Z,53.17
2017-04-11T00:11:15.196Z,53.25
2017-04-11T00:11:36.993Z,53.49
2017-04-11T00:12:03.475Z,54.06
2017-04-11T00:12:25.186Z,54.44
2017-04-11T00:12:51.686Z,54.27
2017-04-11T00:13:13.471Z,54.54
2017-04-11T00:13:39.943Z,54.37
2017-04-11T00:14:01.632Z,54.25
2017-04-11T00:14:23.414Z,53.98
2017-04-11T00:14:45.120Z,53.39
2017-04-11T00:15:06.832Z,53.13
2017-04-11T00:15:28.525Z,53.78
2017-04-11T00:15:55.047Z,53.61
2017-04-11T00:16:16.828Z,53.24
2017-04-11T00:16:38.524Z,53.36
2017-04-11T00:17:00.225Z,53.39
2017-04-11T00:17:21.917Z,53.26
2017-04-11T00:18:20.239Z,53.44
2017-04-11T00:18:41.935Z,53.34
2017-04-11T00:19:03.628Z,53.17
2017-04-11T00:20:06.138Z,52.42
2017-04-11T00:20:27.835Z,52.54
2017-04-11T00:20:54.306Z,52.58
2017-04-11T00:21:16.029Z,52.78
2017-04-11T00:21:47.279Z,53.16
2017-04-11T00:22:09.089Z,52.97
2017-04-11T00:22:30.874Z,53.18
2017-04-11T00:22:57.439Z,53.15
2017-04-11T00:23:19.165Z,52.89
2017-04-11T00:23:50.507Z,53.04
2017-04-11T00:24:12.215Z,53.06
2017-04-11T00:24:34.030Z,52.76
2017-04-11T00:24:55.747Z,52.81
2017-04-11T00:25:17.448Z,53.45
2017-04-11T00:25:39.148Z,53.68
2017-04-11T00:26:05.624Z,54.01
2017-04-11T00:26:27.323Z,54.35
2017-04-11T00:26:49.022Z,54.40
2017-04-11T00:27:15.503Z,54.71
2017-04-11T00:27:37.315Z,55.04
2017-04-11T00:27:59.034Z,54.69
2017-04-11T00:28:25.509Z,54.31
2017-04-11T00:28:47.219Z,54.12
2017-04-11T00:29:08.929Z,53.90
2017-04-11T00:29:30.629Z,53.73
2017-04-11T00:29:52.332Z,53.55
2017-04-11T00:30:14.029Z,53.33
2017-04-11T00:30:35.811Z,53.11
2017-04-11T00:30:57.511Z,53.21
2017-04-11T00:31:19.211Z,53.26
2017-04-11T00:31:41.011Z,53.34
2017-04-11T00:32:02.612Z,53.67
2017-04-11T00:32:29.099Z,53.41
2017-04-11T00:32:50.898Z,53.25
2017-04-11T00:33:12.604Z,53.41
2017-04-11T00:33:34.329Z,53.41
2017-04-11T00:34:00.804Z,53.23
2017-04-11T00:34:22.606Z,53.12
2017-04-11T00:34:49.079Z,53.05
2017-04-11T00:35:10.787Z,53.07
2017-04-11T00:35:32.485Z,53.09
2017-04-11T00:35:58.962Z,53.08
2017-04-11T00:36:20.656Z,52.96
2017-04-11T00:36:42.361Z,53.22
2017-04-11T00:37:04.160Z,53.49
2017-04-11T00:37:25.948Z,53.44
2017-04-11T00:38:24.424Z,52.66
2017-04-11T00:38:46.113Z,53.04
2017-04-11T00:39:17.479Z,52.86
2017-04-11T00:39:39.282Z,53.05
2017-04-11T00:40:10.528Z,53.00
2017-04-11T00:40:32.308Z,52.90
2017-04-11T00:40:54.102Z,52.68
2017-04-11T00:41:25.349Z,52.59
2017-04-11T00:41:47.238Z,52.59
2017-04-11T00:42:18.491Z,52.53
2017-04-11T00:42:40.271Z,52.81
2017-04-11T00:43:06.755Z,53.25
2017-04-11T00:43:28.596Z,53.65
2017-04-11T00:43:55.078Z,53.55
2017-04-11T00:44:16.879Z,53.31
2017-04-11T00:44:38.763Z,53.41
2017-04-11T00:45:00.565Z,53.60
2017-04-11T00:45:22.258Z,53.82
2017-04-11T00:45:44.034Z,53.84
2017-04-11T00:46:05.736Z,53.42
2017-04-11T00:46:27.427Z,53.29
2017-04-11T00:46:49.299Z,53.63
2017-04-11T00:47:47.692Z,53.88
2017-04-11T00:48:09.493Z,54.27
2017-04-11T00:49:12.077Z,52.98
2017-04-11T00:49:33.775Z,53.51
2017-04-11T00:49:55.557Z,52.76
2017-04-11T00:50:22.032Z,52.53
2017-04-11T00:50:43.732Z,52.58
2017-04-11T00:51:05.443Z,52.84
2017-04-11T00:51:31.934Z,52.77
2017-04-11T00:51:53.727Z,52.71
2017-04-11T00:52:15.429Z,52.88
2017-04-11T00:53:18.034Z,54.42
2017-04-11T00:53:39.757Z,54.91
2017-04-11T00:54:42.262Z,54.75
2017-04-11T00:55:04.033Z,54.65
2017-04-11T00:55:25.739Z,54.96
2017-04-11T00:55:47.437Z,54.44
2017-04-11T00:56:09.136Z,54.15
2017-04-11T00:56:30.832Z,54.03
2017-04-11T00:56:52.534Z,54.04
2017-04-11T00:57:23.794Z,54.08
2017-04-11T00:57:45.509Z,53.83
2017-04-11T00:58:07.293Z,54.08
2017-04-11T00:58:28.995Z,54.33
2017-04-11T00:58:50.716Z,54.45
2017-04-11T00:59:12.405Z,54.33
2017-04-11T00:59:38.886Z,53.92
2017-04-11T01:00:00.683Z,53.43
2017-04-11T01:00:22.379Z,53.28
2017-04-11T01:00:44.077Z,53.19
2017-04-11T01:01:05.765Z,53.06
2017-04-11T01:01:32.246Z,53.18
2017-04-11T01:01:53.952Z,53.19
2017-04-11T01:02:15.734Z,53.08
2017-04-11T01:02:46.979Z,52.97
2017-04-11T01:03:08.669Z,52.82
2017-04-11T01:04:07.002Z,52.88
2017-04-11T01:04:28.775Z,52.88
2017-04-11T01:05:00.031Z,53.84
2017-04-11T01:05:21.720Z,53.61
2017-04-11T01:05:48.192Z,53.29
2017-04-11T01:06:09.887Z,53.12
2017-04-11T01:06:31.589Z,52.91
2017-04-11T01:06:58.159Z,52.88
2017-04-11T01:07:19.867Z,53.43
2017-04-11T01:07:46.341Z,53.58
2017-04-11T01:08:08.123Z,53.35
2017-04-11T01:08:29.829Z,52.92
2017-04-11T01:08:56.313Z,53.24
2017-04-11T01:09:18.032Z,54.00
2017-04-11T01:09:44.509Z,54.63
2017-04-11T01:10:06.202Z,54.49
2017-04-11T01:10:27.905Z,54.47
2017-04-11T01:10:54.392Z,54.52
2017-04-11T01:11:16.103Z,54.07
2017-04-11T01:11:37.800Z,53.46
2017-04-11T01:11:59.496Z,53.18
2017-04-11T01:12:21.192Z,52.91
2017-04-11T01:12:47.680Z,53.23
2017-04-11T01:13:09.376Z,53.04
2017-04-11T01:13:31.085Z,52.81
2017-04-11T01:13:52.781Z,53.32
2017-04-11T01:14:14.482Z,53.15
2017-04-11T01:14:40.959Z,52.87
2017-04-11T01:15:02.663Z,52.90
2017-04-11T01:15:24.364Z,52.80
2017-04-11T01:15:46.056Z,53.07
2017-04-11T01:16:12.546Z,52.95
2017-04-11T01:16:34.332Z,53.23
2017-04-11T01:16:56.015Z,52.85
2017-04-11T01:17:22.484Z,52.52
2017-04-11T01:17:44.181Z,53.01
2017-04-11T01:18:05.982Z,53.29
2017-04-11T01:18:32.452Z,52.82
2017-04-11T01:18:54.148Z,52.50
2017-04-11T01:19:15.872Z,52.52
2017-04-11T01:19:37.577Z,52.47
2017-04-11T01:19:59.280Z,52.43
2017-04-11T01:20:20.983Z,52.81
2017-04-11T01:20:42.769Z,52.66
2017-04-11T01:21:30.946Z,52.38
2017-04-11T01:21:52.647Z,51.92
2017-04-11T01:22:19.119Z,51.51
2017-04-11T01:22:40.820Z,51.32
2017-04-11T01:23:02.635Z,51.52
2017-04-11T01:23:24.341Z,51.51
2017-04-11T01:23:50.821Z,51.33
2017-04-11T01:24:12.522Z,51.65
2017-04-11T01:24:34.251Z,51.71
2017-04-11T01:25:00.731Z,51.68
2017-04-11T01:25:22.523Z,52.08
2017-04-11T01:25:44.228Z,52.30
2017-04-11T01:26:10.714Z,52.74
2017-04-11T01:26:32.400Z,53.27
2017-04-11T01:26:54.092Z,52.91
2017-04-11T01:27:15.795Z,53.13
2017-04-11T01:27:37.494Z,53.28
2017-04-11T01:27:59.217Z,53.75
2017-04-11T01:28:20.915Z,54.09
2017-04-11T01:28:42.604Z,54.00
2017-04-11T01:29:45.213Z,53.81
2017-04-11T01:30:06.909Z,53.51
2017-04-11T01:30:33.380Z,53.24
2017-04-11T01:30:55.067Z,53.44
2017-04-11T01:31:16.776Z,53.28
2017-04-11T01:31:43.242Z,53.16
2017-04-11T01:32:04.931Z,53.03
2017-04-11T01:32:26.629Z,52.86
2017-04-11T01:32:48.334Z,52.84
2017-04-11T01:33:10.025Z,52.60
2017-04-11T01:33:31.733Z,52.57
2017-04-11T01:33:53.527Z,52.09
2017-04-11T01:34:15.212Z,52.18
2017-04-11T01:34:36.936Z,52.50
2017-04-11T01:34:58.653Z,52.87
2017-04-11T01:35:20.346Z,52.77
2017-04-11T01:36:22.843Z,53.35
2017-04-11T01:36:44.592Z,53.43
2017-04-11T01:37:15.859Z,52.86
2017-04-11T01:37:37.549Z,52.88
2017-04-11T01:37:59.258Z,53.22
2017-04-11T01:39:06.535Z,52.54
2017-04-11T01:39:28.223Z,52.68
2017-04-11T01:39:54.698Z,52.55
2017-04-11T01:40:16.392Z,52.66
2017-04-11T01:40:38.185Z,53.25
2017-04-11T01:41:04.647Z,53.92
2017-04-11T01:41:26.336Z,54.55
2017-04-11T01:41:48.028Z,54.44
2017-04-11T01:42:09.731Z,54.41
2017-04-11T01:42:31.427Z,54.14
2017-04-11T01:43:29.801Z,52.87
2017-04-11T01:43:51.508Z,53.08
2017-04-11T01:44:13.214Z,52.59
2017-04-11T01:44:34.913Z,52.55
2017-04-11T01:44:56.610Z,52.40
2017-04-11T01:45:18.321Z,52.53
2017-04-11T01:46:16.644Z,52.04
2017-04-11T01:46:38.339Z,51.84
2017-04-11T01:47:00.035Z,52.01
2017-04-11T01:47:26.525Z,52.07
2017-04-11T01:47:48.324Z,52.02
2017-04-11T01:48:19.582Z,52.31
2017-04-11T01:48:41.352Z,52.28
2017-04-11T01:49:03.048Z,52.20
2017-04-11T01:49:24.831Z,51.85
2017-04-11T01:49:46.526Z,51.89
2017-04-11T01:50:08.229Z,52.26
2017-04-11T01:50:29.933Z,52.29
2017-04-11T01:50:51.641Z,52.38
2017-04-11T01:51:13.353Z,52.19
2017-04-11T01:51:35.053Z,51.90
2017-04-11T01:51:56.811Z,52.02
2017-04-11T01:52:23.293Z,52.75
2017-04-11T01:52:45.163Z,53.53
2017-04-11T01:53:06.977Z,54.00
2017-04-11T01:53:28.685Z,54.73
2017-04-11T01:53:55.262Z,55.18
2017-04-11T01:54:17.035Z,55.09
2017-04-11T01:54:43.515Z,55.21
2017-04-11T01:55:05.310Z,55.00
2017-04-11T01:55:31.891Z,54.46
2017-04-11T01:55:53.662Z,54.09
2017-04-11T01:56:20.222Z,53.57
2017-04-11T01:56:42.099Z,53.37
2017-04-11T01:57:08.567Z,53.91
2017-04-11T01:57:35.131Z,53.48
2017-04-11T01:58:01.601Z,53.33
2017-04-11T01:58:23.479Z,53.85
2017-04-11T01:58:45.178Z,53.59
2017-04-11T01:59:11.651Z,53.84
2017-04-11T01:59:33.427Z,53.78
2017-04-11T02:00:31.987Z,53.04
2017-04-11T02:00:58.475Z,52.96
2017-04-11T02:01:29.864Z,53.09
2017-04-11T02:01:51.662Z,53.25
2017-04-11T02:02:18.156Z,53.29
2017-04-11T02:02:39.987Z,53.25
2017-04-11T02:03:11.233Z,52.87
2017-04-11T02:03:33.027Z,53.16
2017-04-11T02:03:54.813Z,52.97
2017-04-11T02:04:16.605Z,53.01
2017-04-11T02:04:38.384Z,52.93
2017-04-11T02:05:04.855Z,53.06
2017-04-11T02:05:26.723Z,53.04
2017-04-11T02:05:48.416Z,53.25
2017-04-11T02:06:10.307Z,53.04
2017-04-11T02:06:32.090Z,53.08
2017-04-11T02:06:53.817Z,53.04
2017-04-11T02:07:20.288Z,53.29
2017-04-11T02:07:42.059Z,53.84
2017-04-11T02:08:03.756Z,53.90
2017-04-11T02:08:25.549Z,53.76
2017-04-11T02:08:47.337Z,53.87
2017-04-11T02:09:18.594Z,53.71
2017-04-11T02:09:40.426Z,53.83
2017-04-11T02:10:06.892Z,53.30
2017-04-11T02:10:28.588Z,53.38
2017-04-11T02:10:50.296Z,53.81
2017-04-11T02:11:21.635Z,54.34
2017-04-11T02:11:43.342Z,54.14
2017-04-11T02:12:05.044Z,54.31
2017-04-11T02:12:36.411Z,54.78
2017-04-11T02:12:58.332Z,54.51
2017-04-11T02:13:29.583Z,54.87
2017-04-11T02:13:51.364Z,55.55
2017-04-11T02:14:17.927Z,55.49
2017-04-11T02:14:39.715Z,54.97
2017-04-11T02:15:01.405Z,54.73
2017-04-11T02:16:03.999Z,54.22
2017-04-11T02:16:25.785Z,54.54
2017-04-11T02:16:47.490Z,54.50
2017-04-11T02:17:46.127Z,54.18
2017-04-11T02:18:07.922Z,54.39
2017-04-11T02:18:34.411Z,54.73
2017-04-11T02:18:56.097Z,54.57
2017-04-11T02:19:27.359Z,54.14
2017-04-11T02:19:49.070Z,54.25
2017-04-11T02:20:20.325Z,54.34
2017-04-11T02:20:42.119Z,54.20
2017-04-11T02:21:13.370Z,54.34
2017-04-11T02:21:35.154Z,54.49
2017-04-11T02:22:01.724Z,54.31
2017-04-11T02:22:23.417Z,54.07
2017-04-11T02:22:45.322Z,54.47
2017-04-11T02:23:07.033Z,54.12
2017-04-11T02:23:28.883Z,53.96
2017-04-11T02:24:27.451Z,54.36
2017-04-11T02:24:49.267Z,54.44
2017-04-11T02:25:20.525Z,54.77
2017-04-11T02:25:42.327Z,54.38
2017-04-11T02:26:08.809Z,54.09
2017-04-11T02:26:30.585Z,53.95
2017-04-11T02:27:01.928Z,53.81
2017-04-11T02:27:23.714Z,54.17
2017-04-11T02:27:45.454Z,54.21
2017-04-11T02:28:07.247Z,54.48
2017-04-11T02:28:28.935Z,54.29
2017-04-11T02:28:50.729Z,54.89
2017-04-11T02:29:12.428Z,55.61
2017-04-11T02:29:34.226Z,56.00
2017-04-11T02:29:56.017Z,55.87
2017-04-11T02:30:17.809Z,55.48
2017-04-11T02:30:39.605Z,55.49
2017-04-11T02:31:01.388Z,55.30
2017-04-11T02:31:23.204Z,54.90
2017-04-11T02:31:44.990Z,55.01
2017-04-11T02:32:06.784Z,54.72
2017-04-11T02:32:33.373Z,54.38
2017-04-11T02:32:55.098Z,54.30
2017-04-11T02:33:16.893Z,54.54
2017-04-11T02:33:38.594Z,54.54
2017-04-11T02:34:00.287Z,54.66
2017-04-11T02:34:22.102Z,54.77
2017-04-11T02:34:43.798Z,54.88
2017-04-11T02:35:05.715Z,55.24
2017-04-11T02:35:32.183Z,54.85
2017-04-11T02:35:53.876Z,54.92
2017-04-11T02:36:15.660Z,54.79
2017-04-11T02:36:37.449Z,54.75
2017-04-11T02:37:08.692Z,54.62
2017-04-11T02:37:30.477Z,54.36
2017-04-11T02:37:56.971Z,53.99
2017-04-11T02:38:18.857Z,53.97
2017-04-11T02:38:45.340Z,53.72
2017-04-11T02:39:07.210Z,54.13
2017-04-11T02:39:33.682Z,54.29
2017-04-11T02:39:55.467Z,54.11
2017-04-11T02:40:21.943Z,53.98
2017-04-11T02:40:43.724Z,54.02
2017-04-11T02:41:05.427Z,54.39
2017-04-11T02:41:27.226Z,54.70
2017-04-11T02:41:53.695Z,54.54
2017-04-11T02:42:15.384Z,54.49
2017-04-11T02:42:37.256Z,54.05
2017-04-11T02:42:59.089Z,54.18
2017-04-11T02:43:20.863Z,53.98
2017-04-11T02:43:42.653Z,54.01
2017-04-11T02:44:04.385Z,53.93
2017-04-11T02:44:26.078Z,54.07
2017-04-11T02:44:47.865Z,54.39
2017-04-11T02:45:14.338Z,54.26
2017-04-11T02:45:36.120Z,54.24
2017-04-11T02:45:57.898Z,54.37
2017-04-11T02:46:24.373Z,54.01
2017-04-11T02:46:46.242Z,54.29
2017-04-11T02:47:17.487Z,54.06
2017-04-11T02:47:39.278Z,54.58
2017-04-11T02:48:01.004Z,54.48
2017-04-11T02:48:22.906Z,54.60
2017-04-11T02:48:44.602Z,54.61
2017-04-11T02:49:06.480Z,54.54
2017-04-11T02:49:28.177Z,54.62
2017-04-11T02:49:50.044Z,54.48
2017-04-11T02:50:21.305Z,54.95
2017-04-11T02:50:43.089Z,54.86
2017-04-11T02:51:04.881Z,54.63
2017-04-11T02:51:31.360Z,55.08
2017-04-11T02:51:53.069Z,55.66
2017-04-11T02:52:19.557Z,55.51
2017-04-11T02:52:41.426Z,55.33
2017-04-11T02:53:12.681Z,54.96
2017-04-11T02:53:34.473Z,54.95
2017-04-11T02:54:05.812Z,54.73
2017-04-11T02:54:27.632Z,55.19
2017-04-11T02:54:58.882Z,55.18
2017-04-11T02:55:20.580Z,55.31
2017-04-11T02:55:49.454Z,55.34
2017-04-11T02:56:11.339Z,55.00
2017-04-11T02:56:37.844Z,54.88
2017-04-11T02:56:59.539Z,54.78
2017-04-11T02:57:21.326Z,54.81
2017-04-11T02:57:52.676Z,55.07
2017-04-11T02:58:14.496Z,55.38
2017-04-11T02:59:21.880Z,55.68
2017-04-11T02:59:43.663Z,55.86
2017-04-11T03:00:41.970Z,55.32
2017-04-11T03:01:40.365Z,55.49
2017-04-11T03:02:02.058Z,55.78
2017-04-11T03:02:28.548Z,56.27
2017-04-11T03:02:50.346Z,55.89
2017-04-11T03:03:12.049Z,55.65
2017-04-11T03:03:38.512Z,56.02
2017-04-11T03:04:00.286Z,56.53
2017-04-11T03:04:21.984Z,56.32
2017-04-11T03:04:48.472Z,55.94
2017-04-11T03:05:10.369Z,56.12
2017-04-11T03:05:36.844Z,57.27
2017-04-11T03:05:58.645Z,57.18
2017-04-11T03:06:20.390Z,56.85
2017-04-11T03:06:51.715Z,56.53
2017-04-11T03:07:13.510Z,56.39
2017-04-11T03:07:44.766Z,56.21
2017-04-11T03:08:06.455Z,56.61
2017-04-11T03:08:37.709Z,56.04
2017-04-11T03:08:59.410Z,55.79
2017-04-11T03:09:30.662Z,55.77
2017-04-11T03:09:52.370Z,55.87
2017-04-11T03:10:23.718Z,56.96
2017-04-11T03:10:45.503Z,57.04
2017-04-11T03:11:07.300Z,56.88
2017-04-11T03:11:29.093Z,56.82
2017-04-11T03:11:50.787Z,56.65
2017-04-11T03:12:49.215Z,56.62
2017-04-11T03:13:10.999Z,56.33
2017-04-11T03:13:37.589Z,56.75
2017-04-11T03:13:59.376Z,57.08
2017-04-11T03:14:21.177Z,56.49
2017-04-11T03:14:47.753Z,56.55
2017-04-11T03:15:09.468Z,56.38
2017-04-11T03:15:31.189Z,56.39
2017-04-11T03:15:57.761Z,56.13
2017-04-11T03:16:19.480Z,56.24
2017-04-11T03:16:45.957Z,56.42
2017-04-11T03:17:07.655Z,56.27
2017-04-11T03:17:34.212Z,56.24
2017-04-11T03:17:55.903Z,56.11
2017-04-11T03:18:22.377Z,55.96
2017-04-11T03:18:44.122Z,55.93
2017-04-11T03:19:10.681Z,55.87
2017-04-11T03:19:32.397Z,55.72
2017-04-11T03:19:54.121Z,56.33
2017-04-11T03:20:25.379Z,56.97
2017-04-11T03:20:47.168Z,57.18
2017-04-11T03:21:48.583Z,56.48
2017-04-11T03:22:19.829Z,56.26
2017-04-11T03:22:41.528Z,56.50
2017-04-11T03:23:08.086Z,56.37
2017-04-11T03:23:34.562Z,56.22
2017-04-11T03:23:56.312Z,56.34
2017-04-11T03:24:18.111Z,56.19
2017-04-11T03:24:44.702Z,56.20
2017-04-11T03:25:06.604Z,56.28
2017-04-11T03:25:37.865Z,56.36
2017-04-11T03:25:59.584Z,56.41
2017-04-11T03:26:26.169Z,56.62
2017-04-11T03:26:47.882Z,56.97
2017-04-11T03:27:14.370Z,57.13
2017-04-11T03:27:36.106Z,57.00
2017-04-11T03:27:57.925Z,57.18
2017-04-11T03:28:56.266Z,58.19
2017-04-11T03:29:18.091Z,57.94
2017-04-11T03:30:16.520Z,57.78
2017-04-11T03:30:38.383Z,57.51
2017-04-11T03:31:36.687Z,57.16
2017-04-11T03:32:03.237Z,57.29
2017-04-11T03:32:34.499Z,57.04
2017-04-11T03:32:56.193Z,57.34
2017-04-11T03:33:22.765Z,57.05
2017-04-11T03:33:44.499Z,57.06
2017-04-11T03:34:51.876Z,57.53
2017-04-11T03:35:13.576Z,57.45
2017-04-11T03:35:35.302Z,57.49
2017-04-11T03:36:06.568Z,56.98
2017-04-11T03:36:28.419Z,56.88
2017-04-11T03:36:54.926Z,56.70
2017-04-11T03:37:16.643Z,57.05
2017-04-11T03:37:43.225Z,57.29
2017-04-11T03:38:04.968Z,57.41
2017-04-11T03:38:31.472Z,57.20
2017-04-11T03:38:53.186Z,57.21
2017-04-11T03:39:19.735Z,57.10
2017-04-11T03:39:41.468Z,57.07
2017-04-11T03:40:07.952Z,57.17
2017-04-11T03:40:29.672Z,57.56
2017-04-11T03:40:51.471Z,57.75
2017-04-11T03:41:49.775Z,57.39
2017-04-11T03:42:48.225Z,57.01
2017-04-11T03:43:09.941Z,57.46
2017-04-11T03:43:41.186Z,57.54
2017-04-11T03:44:02.966Z,57.44
2017-04-11T03:44:24.741Z,57.21
2017-04-11T03:44:51.270Z,57.17
2017-04-11T03:45:13.151Z,57.03
2017-04-11T03:45:34.868Z,56.63
2017-04-11T03:46:01.447Z,56.58
2017-04-11T03:46:23.274Z,56.63
2017-04-11T03:46:45.012Z,57.29
2017-04-11T03:47:16.286Z,57.96
2017-04-11T03:47:38.084Z,58.06
2017-04-11T03:48:04.677Z,58.46
2017-04-11T03:48:26.473Z,58.19
2017-04-11T03:48:53.043Z,57.91
2017-04-11T03:49:14.832Z,57.82
2017-04-11T03:49:36.544Z,57.90
2017-04-11T03:50:03.111Z,58.01
2017-04-11T03:50:24.851Z,57.68
2017-04-11T03:50:51.435Z,57.34
2017-04-11T03:51:13.224Z,57.40
2017-04-11T03:52:15.846Z,56.79
2017-04-11T03:52:37.555Z,56.96
2017-04-11T03:53:08.844Z,57.25
2017-04-11T03:53:30.623Z,57.44
2017-04-11T03:53:52.342Z,57.48
2017-04-11T03:54:23.601Z,57.54
2017-04-11T03:54:45.436Z,58.05
2017-04-11T03:55:07.164Z,57.38
2017-04-11T03:55:33.653Z,57.15
2017-04-11T03:55:55.453Z,57.18
2017-04-11T03:56:21.933Z,57.15
2017-04-11T03:56:43.639Z,57.24
2017-04-11T03:57:05.417Z,57.46
2017-04-11T03:57:36.667Z,57.22
2017-04-11T03:57:58.366Z,57.38
2017-04-11T03:58:59.513Z,57.47
2017-04-11T03:59:57.949Z,57.47
2017-04-11T04:00:19.691Z,57.55
2017-04-11T04:01:19.129Z,58.35
2017-04-11T04:01:40.848Z,58.32
2017-04-11T04:02:39.259Z,59.07
2017-04-11T04:03:00.975Z,58.81
2017-04-11T04:03:59.412Z,57.64
2017-04-11T04:04:21.120Z,57.54
2017-04-11T04:05:19.478Z,57.41
2017-04-11T04:05:41.229Z,57.37
2017-04-11T04:06:07.722Z,57.30
2017-04-11T04:06:29.547Z,57.22
2017-04-11T04:07:00.831Z,57.05
2017-04-11T04:07:22.536Z,57.12
2017-04-11T04:07:49.089Z,57.28
2017-04-11T04:08:10.800Z,56.99
2017-04-11T04:08:37.286Z,56.97
2017-04-11T04:08:58.990Z,56.94
2017-04-11T04:09:25.587Z,56.81
2017-04-11T04:09:47.328Z,57.08
2017-04-11T04:10:13.808Z,57.21
2017-04-11T04:10:35.515Z,57.33
2017-04-11T04:11:06.776Z,57.33
2017-04-11T04:11:28.556Z,57.34
2017-04-11T04:11:50.268Z,57.15
2017-04-11T04:12:21.520Z,57.48
2017-04-11T04:12:43.316Z,57.82
2017-04-11T04:13:45.908Z,58.52
2017-04-11T04:14:07.628Z,58.51
2017-04-11T04:15:06.034Z,57.72
2017-04-11T04:15:27.828Z,57.55
2017-04-11T04:16:30.804Z,58.71
2017-04-11T04:16:52.505Z,58.68
2017-04-11T04:17:23.778Z,58.45
2017-04-11T04:17:45.549Z,58.17
2017-04-11T04:18:12.074Z,58.72
2017-04-11T04:18:33.784Z,58.96
2017-04-11T04:18:55.596Z,58.72
2017-04-11T04:19:22.060Z,58.85
2017-04-11T04:19:43.828Z,59.33
2017-04-11T04:21:27.340Z,57.63
2017-04-11T04:21:49.076Z,57.55
2017-04-11T04:22:20.383Z,57.51
2017-04-11T04:22:42.176Z,58.21
2017-04-11T04:23:08.659Z,58.34
2017-04-11T04:23:30.360Z,58.24
2017-04-11T04:23:56.928Z,59.14
2017-04-11T04:24:18.646Z,59.12
2017-04-11T04:25:21.273Z,58.67
2017-04-11T04:25:43.069Z,58.78
2017-04-11T04:26:04.766Z,58.73
2017-04-11T04:26:26.474Z,58.64
2017-04-11T04:26:48.266Z,59.05
2017-04-11T04:27:09.993Z,59.27
2017-04-11T04:27:31.794Z,59.59
2017-04-11T04:27:53.497Z,59.21
2017-04-11T04:28:19.980Z,58.83
2017-04-11T04:28:41.768Z,59.32
2017-04-11T04:29:03.463Z,59.58
2017-04-11T04:29:25.162Z,59.72
2017-04-11T04:29:46.853Z,59.50
2017-04-11T04:30:08.658Z,59.92
2017-04-11T04:30:35.154Z,59.92
2017-04-11T04:30:56.862Z,60.04
2017-04-11T04:31:18.572Z,59.86
2017-04-11T04:31:45.048Z,60.01
2017-04-11T04:32:07.842Z,59.94
2017-04-11T04:32:29.637Z,59.82
2017-04-11T04:32:51.337Z,59.68
2017-04-11T04:33:13.030Z,59.91
2017-04-11T04:33:44.291Z,59.85
2017-04-11T04:34:05.978Z,59.35
2017-04-11T04:34:27.773Z,58.93
2017-04-11T04:35:26.067Z,58.39
2017-04-11T04:35:52.622Z,58.20
2017-04-11T04:36:14.485Z,58.12
2017-04-11T04:36:36.189Z,58.27
2017-04-11T04:36:57.905Z,58.54
2017-04-11T04:37:24.465Z,58.84
2017-04-11T04:37:46.162Z,58.91
2017-04-11T04:38:07.855Z,58.76
2017-04-11T04:38:34.326Z,58.55
2017-04-11T04:38:56.110Z,58.26
2017-04-11T04:39:17.807Z,58.04
2017-04-11T04:39:39.501Z,57.99
2017-04-11T04:40:01.282Z,58.21
2017-04-11T04:40:22.968Z,58.10
2017-04-11T04:40:54.223Z,58.47
2017-04-11T04:41:15.933Z,58.75
2017-04-11T04:41:37.821Z,58.77
2017-04-11T04:42:09.085Z,59.30
2017-04-11T04:42:30.874Z,59.58
2017-04-11T04:42:52.659Z,59.71
2017-04-11T04:43:14.359Z,60.07
2017-04-11T04:43:36.051Z,60.02
2017-04-11T04:43:57.756Z,59.92
2017-04-11T04:44:29.016Z,60.73
2017-04-11T04:44:50.710Z,60.88
2017-04-11T04:45:12.421Z,61.42
2017-04-11T04:45:34.154Z,61.67
2017-04-11T04:45:55.869Z,61.87
2017-04-11T04:47:03.277Z,60.57
2017-04-11T04:47:24.983Z,60.68
2017-04-11T04:47:46.767Z,60.26
2017-04-11T04:48:18.012Z,60.39
2017-04-11T04:48:39.704Z,60.45
2017-04-11T04:49:06.179Z,60.98
2017-04-11T04:49:27.873Z,61.00
2017-04-11T04:49:59.122Z,60.70
2017-04-11T04:50:20.817Z,60.60
2017-04-11T04:50:52.071Z,60.27
2017-04-11T04:51:13.868Z,60.76
2017-04-11T04:51:35.576Z,60.33
2017-04-11T04:51:57.282Z,59.92
2017-04-11T04:52:18.981Z,59.89
2017-04-11T04:53:21.496Z,58.93
2017-04-11T04:53:43.268Z,58.44
2017-04-11T04:54:09.756Z,58.17
2017-04-11T04:54:31.471Z,58.16
2017-04-11T04:54:53.261Z,58.08
2017-04-11T04:55:19.734Z,57.99
2017-04-11T04:55:41.430Z,58.09
2017-04-11T04:56:03.130Z,58.26
2017-04-11T04:56:29.688Z,58.79
2017-04-11T04:56:51.398Z,58.91
2017-04-11T04:57:13.107Z,59.00
2017-04-11T04:57:39.576Z,58.86
2017-04-11T04:58:01.356Z,58.76
2017-04-11T04:58:27.847Z,58.77
2017-04-11T04:58:49.557Z,58.80
2017-04-11T04:59:16.042Z,59.47
2017-04-11T04:59:37.828Z,60.09
2017-04-11T04:59:59.542Z,60.51
2017-04-11T05:00:21.255Z,61.11
2017-04-11T05:00:43.059Z,61.70
2017-04-11T05:01:04.767Z,61.86
2017-04-11T05:01:36.008Z,61.34
2017-04-11T05:01:57.789Z,61.34
2017-04-11T05:02:19.489Z,61.59
2017-04-11T05:02:41.197Z,62.06
2017-04-11T05:03:02.889Z,62.47
2017-04-11T05:03:24.687Z,62.68
2017-04-11T05:03:46.384Z,62.86
2017-04-11T05:04:08.076Z,62.95
2017-04-11T05:04:29.778Z,63.24
2017-04-11T05:04:51.566Z,63.24
2017-04-11T05:05:13.257Z,63.13
2017-04-11T05:05:44.532Z,62.41
2017-04-11T05:06:06.335Z,61.93
2017-04-11T05:06:28.034Z,61.78
2017-04-11T05:06:49.815Z,61.83
2017-04-11T05:07:11.538Z,61.18
2017-04-11T05:07:42.781Z,60.47
2017-04-11T05:08:14.055Z,60.63
2017-04-11T05:08:35.804Z,60.44
2017-04-11T05:08:57.607Z,60.12
2017-04-11T05:09:19.339Z,59.75
2017-04-11T05:09:41.106Z,59.39
2017-04-11T05:10:02.805Z,59.97
2017-04-11T05:10:29.286Z,59.81
2017-04-11T05:10:51.121Z,59.84
2017-04-11T05:11:49.420Z,60.53
2017-04-11T05:12:11.232Z,61.00
2017-04-11T05:12:37.709Z,61.38
2017-04-11T05:12:59.400Z,61.80
2017-04-11T05:13:21.113Z,61.68
2017-04-11T05:13:47.671Z,62.01
2017-04-11T05:14:09.376Z,61.67
2017-04-11T05:14:31.061Z,60.87
2017-04-11T05:14:52.760Z,60.79
2017-04-11T05:15:14.539Z,60.57
2017-04-11T05:15:36.224Z,60.73
2017-04-11T05:15:57.965Z,60.59
2017-04-11T05:16:19.700Z,60.57
2017-04-11T05:16:41.517Z,60.11
2017-04-11T05:17:03.213Z,60.01
2017-04-11T05:17:24.906Z,59.75
2017-04-11T05:17:46.613Z,59.77
2017-04-11T05:18:08.412Z,59.57
2017-04-11T05:19:06.731Z,59.49
2017-04-11T05:19:28.593Z,59.50
2017-04-11T05:19:55.074Z,60.39
2017-04-11T05:20:16.764Z,60.39
2017-04-11T05:20:38.462Z,60.53
2017-04-11T05:21:00.249Z,60.48
2017-04-11T05:21:21.960Z,60.72
2017-04-11T05:21:43.654Z,61.09
2017-04-11T05:22:10.211Z,61.18
2017-04-11T05:22:31.907Z,61.15
2017-04-11T05:22:53.625Z,60.91
2017-04-11T05:23:20.108Z,60.65
2017-04-11T05:23:41.880Z,60.76
2017-04-11T05:24:08.360Z,60.23
2017-04-11T05:24:30.055Z,59.88
2017-04-11T05:25:01.375Z,59.79
2017-04-11T05:25:23.074Z,59.68
2017-04-11T05:25:54.348Z,59.45
2017-04-11T05:26:16.100Z,59.21
2017-04-11T05:26:42.590Z,59.70
2017-04-11T05:27:04.287Z,59.55
2017-04-11T05:27:25.988Z,59.59
2017-04-11T05:27:47.785Z,60.25
2017-04-11T05:28:09.502Z,60.85
2017-04-11T05:28:31.216Z,60.46
2017-04-11T05:29:02.466Z,60.28
2017-04-11T05:29:24.253Z,60.16
2017-04-11T05:29:45.964Z,60.25
2017-04-11T05:30:12.448Z,60.50
2017-04-11T05:30:34.230Z,60.13
2017-04-11T05:30:55.949Z,60.33
2017-04-11T05:31:22.416Z,60.56
2017-04-11T05:31:44.224Z,60.50
2017-04-11T05:32:05.921Z,60.76
2017-04-11T05:32:37.194Z,60.60